Time;durP1;ratioP1;P1;durP2;ratioP2;P2;SDS_P1;SDS_P2;PMS_P1;PMS_P2;Temp;Humidity;BMP_temperature;BMP_pressure;BME280_temperature;BME280_humidity;BME280_pressure;Samples;Min_cycle;Max_cycle;Signal;HPM_P1;HPM_P2
2022/04/17 00:01:32;;;;;;;7.03;3.90;;;;;;;8.16;61.15;99397.53;4125519;28;20681;-89
2022/04/17 00:03:36;;;;;;;4.77;3.93;;;;;;;8.14;61.63;99394.16;4122694;28;20637;-90
2022/04/17 00:05:39;;;;;;;3.87;3.47;;;;;;;8.10;61.82;99401.22;4119371;28;20661;-91
2022/04/17 00:07:43;;;;;;;5.22;4.20;;;;;;;8.04;61.72;99401.44;4123816;28;20640;-90
2022/04/17 00:09:46;;;;;;;3.55;3.25;;;;;;;8.04;61.55;99409.22;4124186;28;20213;-91
2022/04/17 00:11:50;;;;;;;4.60;3.90;;;;;;;7.99;60.85;99400.72;4121791;28;20214;-90
2022/04/17 00:13:54;;;;;;;6.00;4.00;;;;;;;7.86;60.87;99392.63;4124193;28;20265;-90
2022/04/17 00:15:59;;;;;;;3.88;3.40;;;;;;;7.81;62.04;99392.78;4119723;28;20209;-91
2022/04/17 00:18:03;;;;;;;4.20;3.80;;;;;;;7.77;61.61;99395.53;4105358;28;20313;-91
2022/04/17 00:20:08;;;;;;;4.35;3.60;;;;;;;7.73;61.92;99393.97;4124969;28;20682;-91
2022/04/17 00:22:12;;;;;;;4.95;3.47;;;;;;;7.65;61.72;99391.66;4138990;28;20205;-91
2022/04/17 00:24:16;;;;;;;3.92;3.28;;;;;;;7.59;62.14;99389.28;4136043;28;20263;-90
2022/04/17 00:26:20;;;;;;;4.78;3.55;;;;;;;7.58;61.45;99384.16;4121210;28;20204;-91
2022/04/17 00:28:23;;;;;;;4.43;3.40;;;;;;;7.55;61.94;99379.91;4103489;28;20205;-91
2022/04/17 00:30:26;;;;;;;8.65;3.90;;;;;;;7.52;62.02;99386.97;4101596;28;20213;-90
2022/04/17 00:32:31;;;;;;;4.97;3.30;;;;;;;7.49;62.56;99387.06;4124086;28;20219;-90
2022/04/17 00:34:36;;;;;;;3.88;3.47;;;;;;;7.46;62.01;99379.41;4119730;28;20204;-90
2022/04/17 00:36:39;;;;;;;5.78;3.35;;;;;;;7.41;62.29;99370.91;4119346;28;20268;-90
2022/04/17 00:38:43;;;;;;;4.32;3.50;;;;;;;7.35;62.75;99383.25;4119386;28;20234;-90
2022/04/17 00:40:46;;;;;;;4.80;3.20;;;;;;;7.32;62.33;99371.25;4135634;28;20248;-90
2022/04/17 00:42:50;;;;;;;4.50;4.05;;;;;;;7.30;63.15;99370.44;4118988;28;20230;-90
2022/04/17 00:44:54;;;;;;;3.88;3.10;;;;;;;7.29;62.96;99365.31;4135497;28;20239;-91
2022/04/17 00:46:57;;;;;;;3.85;3.25;;;;;;;7.27;62.47;99362.75;4132456;28;20207;-91
2022/04/17 00:49:03;;;;;;;4.13;3.45;;;;;;;7.33;63.22;99362.53;4112822;28;20204;-91
2022/04/17 00:51:10;;;;;;;3.15;2.83;;;;;;;7.26;63.12;99362.81;4120713;28;20212;-91
2022/04/17 00:53:13;;;;;;;2.90;2.70;;;;;;;7.19;62.96;99359.59;4120666;28;20220;-90
2022/04/17 00:55:17;;;;;;;7.22;3.13;;;;;;;7.14;63.45;99368.41;4120326;28;20235;-90
2022/04/17 00:57:21;;;;;;;3.97;3.55;;;;;;;7.12;63.79;99365.88;4137295;28;20261;-90
2022/04/17 00:59:25;;;;;;;4.97;3.33;;;;;;;7.14;63.90;99358.06;4107344;28;20577;-90
2022/04/17 01:01:32;;;;;;;3.85;3.20;;;;;;;7.10;63.60;99353.88;4118895;28;20230;-91
2022/04/17 01:03:35;;;;;;;4.68;3.40;;;;;;;7.05;63.78;99355.78;4137033;28;20701;-90
2022/04/17 01:05:42;;;;;;;3.83;3.40;;;;;;;7.05;63.95;99354.03;4119319;28;20462;-90
2022/04/17 01:07:46;;;;;;;3.50;3.13;;;;;;;7.00;63.87;99355.09;4134660;28;20740;-91
2022/04/17 01:09:50;;;;;;;3.53;2.90;;;;;;;6.97;63.77;99346.56;4122423;28;20208;-90
2022/04/17 01:11:54;;;;;;;5.85;2.97;;;;;;;6.97;64.00;99339.63;4138193;28;20205;-90
2022/04/17 01:13:58;;;;;;;5.60;3.05;;;;;;;6.96;64.22;99337.97;4105875;28;20212;-90
2022/04/17 01:16:05;;;;;;;4.30;3.33;;;;;;;6.97;63.34;99343.97;4121259;28;20633;-91
2022/04/17 01:18:08;;;;;;;8.57;3.20;;;;;;;6.93;64.01;99342.38;4121677;28;20246;-91
2022/04/17 01:20:12;;;;;;;4.35;3.25;;;;;;;6.92;63.93;99338.13;4125573;28;20208;-90
2022/04/17 01:22:17;;;;;;;4.78;2.83;;;;;;;6.93;63.65;99342.38;4119194;28;20346;-91
2022/04/17 01:26:57;;;;;;;7.72;3.25;;;;;;;6.85;63.80;99334.03;4119386;28;20200;-90
2022/04/17 01:29:02;;;;;;;4.53;3.50;;;;;;;6.83;63.83;99338.44;4126613;28;20678;-91
2022/04/17 01:31:06;;;;;;;4.25;3.25;;;;;;;6.80;64.03;99334.19;4141308;28;20208;-91
2022/04/17 01:33:15;;;;;;;3.28;2.80;;;;;;;6.80;64.22;99338.53;4128154;28;20205;-91
2022/04/17 01:35:18;;;;;;;3.17;2.88;;;;;;;6.78;64.10;99332.53;4110485;28;20635;-91
2022/04/17 01:37:23;;;;;;;3.50;3.03;;;;;;;6.78;63.95;99316.97;4125535;28;20227;-91
2022/04/17 01:39:27;;;;;;;5.05;3.30;;;;;;;6.78;64.28;99320.44;4122462;28;20251;-91
2022/04/17 01:41:30;;;;;;;4.40;3.38;;;;;;;6.78;64.36;99317.84;4151193;28;20200;-88
2022/04/17 01:43:33;;;;;;;3.38;2.97;;;;;;;6.81;64.33;99322.91;4131110;28;20268;-88
2022/04/17 01:45:36;;;;;;;5.03;3.20;;;;;;;6.76;64.22;99318.78;4114912;28;20205;-89
2022/04/17 01:47:39;;;;;;;3.70;3.15;;;;;;;6.77;64.35;99328.25;4152490;28;20269;-88
2022/04/17 01:49:43;;;;;;;5.40;3.05;;;;;;;6.71;63.85;99331.06;4158137;28;20216;-90
2022/04/17 01:51:47;;;;;;;5.40;3.00;;;;;;;6.70;64.32;99331.94;4144032;28;20208;-89
2022/04/17 01:53:52;;;;;;;4.80;2.90;;;;;;;6.71;64.25;99336.25;4145765;28;20274;-90
2022/04/17 01:56:00;;;;;;;4.20;3.05;;;;;;;6.69;64.34;99331.09;4144910;28;20218;-90
2022/04/17 01:58:03;;;;;;;3.55;2.78;;;;;;;6.73;64.39;99334.44;4157696;28;20236;-91
2022/04/17 02:00:07;;;;;;;4.07;3.22;;;;;;;6.75;63.94;99327.44;4127492;28;20254;-91
2022/04/17 02:02:11;;;;;;;6.13;3.35;;;;;;;6.68;64.31;99325.97;4142560;28;20212;-91
2022/04/17 02:04:14;;;;;;;4.30;3.35;;;;;;;6.69;64.11;99312.97;4114648;28;20201;-91
2022/04/17 02:06:18;;;;;;;4.60;2.95;;;;;;;6.65;64.29;99316.53;4114901;28;20212;-90
2022/04/17 02:08:21;;;;;;;4.10;3.53;;;;;;;6.56;64.14;99314.25;4113416;28;20591;-90
2022/04/17 02:10:26;;;;;;;3.50;3.05;;;;;;;6.61;64.38;99308.91;4130934;28;20622;-91
2022/04/17 02:12:30;;;;;;;4.75;3.35;;;;;;;6.57;64.61;99315.13;4130926;28;20258;-91
2022/04/17 02:14:33;;;;;;;3.78;3.38;;;;;;;6.59;64.55;99310.72;4129999;28;20209;-91
2022/04/17 02:16:37;;;;;;;4.35;2.60;;;;;;;6.58;64.53;99307.31;4109205;28;20216;-90
2022/04/17 02:18:40;;;;;;;5.03;3.05;;;;;;;6.59;64.46;99295.19;4139658;28;20228;-90
2022/04/17 02:20:43;;;;;;;4.47;3.30;;;;;;;6.63;64.73;99294.16;4123538;28;20224;-91
2022/04/17 02:22:47;;;;;;;3.38;3.08;;;;;;;6.61;65.01;99283.00;4102692;28;20288;-91
2022/04/17 02:24:50;;;;;;;3.40;3.10;;;;;;;6.55;65.39;99290.97;4120664;28;20775;-91
2022/04/17 02:26:55;;;;;;;3.88;3.20;;;;;;;6.53;65.39;99297.13;4126846;28;20251;-91
2022/04/17 02:28:59;;;;;;;3.42;3.13;;;;;;;6.49;64.81;99288.59;4106739;28;20737;-90
2022/04/17 02:31:03;;;;;;;4.53;3.20;;;;;;;6.50;64.99;99287.72;4108892;28;20237;-91
2022/04/17 02:33:06;;;;;;;4.22;3.20;;;;;;;6.50;65.42;99286.88;4129002;28;20204;-90
2022/04/17 02:35:10;;;;;;;5.72;3.33;;;;;;;6.47;64.89;99285.22;4119843;28;20295;-91
2022/04/17 02:37:14;;;;;;;3.95;3.10;;;;;;;6.45;65.47;99287.03;4137588;28;20201;-90
2022/04/17 02:39:17;;;;;;;4.35;3.25;;;;;;;6.45;65.14;99286.16;4120406;28;20641;-91
2022/04/17 02:41:20;;;;;;;5.22;3.75;;;;;;;6.40;65.64;99275.94;4124180;28;20196;-90
2022/04/17 02:43:25;;;;;;;4.43;3.30;;;;;;;6.40;65.47;99283.72;4110117;28;20308;-91
2022/04/17 02:45:28;;;;;;;5.55;3.70;;;;;;;6.31;65.32;99284.00;4105123;28;20220;-91
2022/04/17 02:47:43;;;;;;;4.50;3.60;;;;;;;6.29;65.40;99269.44;4124841;28;20247;-90
2022/04/17 02:49:46;;;;;;;5.90;4.20;;;;;;;6.27;65.49;99277.25;4108074;28;20581;-91
2022/04/17 02:51:50;;;;;;;6.35;4.05;;;;;;;6.23;66.00;99273.06;4124883;28;20231;-90
2022/04/17 02:53:53;;;;;;;4.90;3.67;;;;;;;6.23;65.54;99267.88;4120836;28;20564;-91
2022/04/17 02:55:56;;;;;;;10.27;4.43;;;;;;;6.19;65.92;99284.44;4124519;28;20944;-90
2022/04/17 02:57:59;;;;;;;5.50;3.95;;;;;;;6.13;66.13;99276.00;4139882;28;20222;-91
2022/04/17 03:00:05;;;;;;;4.72;3.70;;;;;;;6.10;66.14;99274.38;4122433;28;20219;-91
2022/04/17 03:06:47;;;;;;;4.63;3.30;;;;;;;6.02;66.77;99265.13;4137170;28;20685;-90
2022/04/17 03:08:50;;;;;;;4.45;3.53;;;;;;;6.04;66.01;99265.09;4137714;28;20209;-90
2022/04/17 03:10:53;;;;;;;6.13;3.75;;;;;;;6.02;66.07;99253.94;4137711;28;20361;-90
2022/04/17 03:12:57;;;;;;;6.20;3.80;;;;;;;6.03;66.86;99255.63;4122470;28;20698;-91
2022/04/17 03:15:01;;;;;;;4.47;4.00;;;;;;;6.05;66.56;99259.03;4121413;28;20654;-91
2022/04/17 03:17:06;;;;;;;5.70;3.50;;;;;;;6.06;66.01;99255.53;4105463;28;20267;-90
2022/04/17 03:19:09;;;;;;;3.60;3.10;;;;;;;6.03;66.14;99253.03;4139202;28;20224;-90
2022/04/17 03:21:13;;;;;;;4.63;3.22;;;;;;;6.02;66.78;99259.13;4124300;28;20271;-90
2022/04/17 03:23:17;;;;;;;3.55;3.13;;;;;;;5.98;66.69;99260.09;4120684;28;20204;-90
2022/04/17 03:25:20;;;;;;;4.82;3.40;;;;;;;5.97;65.90;99261.00;4137422;28;20299;-90
2022/04/17 03:27:23;;;;;;;5.47;3.40;;;;;;;5.97;66.31;99263.56;4109032;28;20213;-90
2022/04/17 03:29:27;;;;;;;5.80;3.80;;;;;;;5.99;66.64;99266.97;4108156;28;20260;-90
2022/04/17 03:31:30;;;;;;;3.88;3.30;;;;;;;5.96;66.82;99274.84;4105837;28;20339;-90
2022/04/17 03:33:35;;;;;;;3.78;3.10;;;;;;;5.97;66.68;99279.97;4121274;28;20282;-90
2022/04/17 03:35:39;;;;;;;3.67;2.95;;;;;;;5.99;66.07;99274.75;4121583;28;20220;-90
2022/04/17 03:37:43;;;;;;;5.18;3.67;;;;;;;5.92;66.88;99271.47;4123486;28;20583;-90
2022/04/17 03:39:48;;;;;;;3.75;3.20;;;;;;;5.88;66.43;99269.03;4136575;28;20285;-91
2022/04/17 03:41:51;;;;;;;5.03;3.30;;;;;;;5.88;67.00;99267.31;4122377;28;20218;-90
2022/04/17 03:43:56;;;;;;;4.18;3.33;;;;;;;5.88;67.26;99259.56;4135945;28;20744;-90
2022/04/17 03:45:59;;;;;;;4.70;2.83;;;;;;;5.91;66.61;99264.63;4117058;28;20302;-90
2022/04/17 03:48:02;;;;;;;3.83;3.20;;;;;;;5.92;66.79;99268.91;4136812;28;20657;-90
2022/04/17 03:50:09;;;;;;;5.70;3.67;;;;;;;5.92;67.36;99273.25;4132128;28;20320;-90
2022/04/17 03:52:12;;;;;;;4.07;3.45;;;;;;;5.91;66.73;99271.53;4122793;28;20243;-90
2022/04/17 03:54:16;;;;;;;4.00;3.65;;;;;;;5.91;67.23;99263.75;4124333;28;20234;-90
2022/04/17 03:56:19;;;;;;;8.23;3.90;;;;;;;5.89;67.10;99253.47;4122356;28;20211;-90
2022/04/17 03:58:23;;;;;;;4.60;3.40;;;;;;;5.93;67.29;99257.66;4105620;28;20495;-90
2022/04/17 04:00:26;;;;;;;5.70;3.90;;;;;;;5.93;66.87;99252.47;4104020;28;20229;-90
2022/04/17 04:02:30;;;;;;;4.32;3.60;;;;;;;5.96;67.64;99256.72;4124563;28;20270;-90
2022/04/17 04:04:34;;;;;;;4.65;3.50;;;;;;;5.97;66.44;99245.47;4107189;28;20697;-90
2022/04/17 04:06:38;;;;;;;4.20;3.30;;;;;;;5.97;67.15;99245.47;4125361;28;20214;-90
2022/04/17 04:08:42;;;;;;;6.65;6.00;;;;;;;6.01;66.66;99252.25;4135822;28;20229;-90
2022/04/17 04:10:45;;;;;;;4.97;3.55;;;;;;;6.04;66.43;99246.97;4137926;28;20568;-90
2022/04/17 04:12:48;;;;;;;3.88;3.40;;;;;;;6.03;67.32;99245.25;4123011;28;20219;-89
2022/04/17 04:14:52;;;;;;;3.95;3.45;;;;;;;6.04;67.04;99257.31;4125397;28;20216;-90
2022/04/17 04:16:55;;;;;;;6.03;3.95;;;;;;;6.08;66.84;99255.41;4123495;28;20213;-90
2022/04/17 04:18:59;;;;;;;3.85;3.45;;;;;;;6.11;65.90;99255.31;4121376;28;20617;-90
2022/04/17 04:21:02;;;;;;;4.95;3.42;;;;;;;6.14;66.24;99254.41;4136072;28;20219;-90
2022/04/17 04:23:07;;;;;;;5.38;3.60;;;;;;;6.18;66.53;99246.47;4105768;28;20917;-90
2022/04/17 04:25:10;;;;;;;6.35;3.47;;;;;;;6.22;65.98;99247.22;4124544;28;20695;-90
2022/04/17 04:29:35;;;;;;;4.57;4.10;;;;;;;6.16;66.50;99258.63;4105553;28;20230;-89
2022/04/17 04:31:38;;;;;;;7.00;4.60;;;;;;;6.08;67.33;99261.53;4105341;28;20251;-89
2022/04/17 04:33:43;;;;;;;6.85;4.43;;;;;;;5.99;67.15;99256.63;4119858;28;20219;-89
2022/04/17 04:35:46;;;;;;;6.00;4.60;;;;;;;5.96;68.26;99259.31;4119431;28;20212;-90
2022/04/17 04:37:50;;;;;;;7.20;4.38;;;;;;;5.86;68.75;99260.47;4122410;28;20215;-89
2022/04/17 04:39:56;;;;;;;5.38;4.10;;;;;;;5.76;68.70;99256.50;4117156;28;20204;-90
2022/04/17 04:42:00;;;;;;;5.93;4.40;;;;;;;5.71;68.80;99254.03;4118926;28;20220;-89
2022/04/17 04:44:03;;;;;;;4.80;4.25;;;;;;;5.75;69.12;99257.38;4106742;28;20682;-90
2022/04/17 04:46:09;;;;;;;4.90;3.95;;;;;;;5.76;69.03;99253.91;4106928;28;20308;-89
2022/04/17 04:48:13;;;;;;;6.88;3.92;;;;;;;5.82;68.64;99251.16;4123705;28;20929;-90
2022/04/17 04:50:15;;;;;;;4.10;3.60;;;;;;;5.84;68.38;99255.34;4121337;28;20213;-90
2022/04/17 04:52:21;;;;;;;4.95;3.95;;;;;;;5.90;67.70;99254.31;4119536;28;20243;-90
2022/04/17 04:54:24;;;;;;;4.90;3.80;;;;;;;5.94;66.36;99261.94;4121070;28;20240;-90
2022/04/17 04:56:29;;;;;;;6.38;4.07;;;;;;;5.89;68.06;99270.75;4120613;28;20205;-89
2022/04/17 04:58:33;;;;;;;6.97;4.97;;;;;;;5.72;68.63;99267.78;4118317;28;20212;-89
2022/04/17 05:00:36;;;;;;;5.18;4.40;;;;;;;5.70;68.62;99267.00;4118750;28;20231;-89
2022/04/17 05:02:41;;;;;;;4.38;3.95;;;;;;;5.67;69.47;99278.28;4120149;28;20213;-89
2022/04/17 05:04:44;;;;;;;5.03;4.10;;;;;;;5.67;68.30;99277.44;4122642;28;20219;-89
2022/04/17 05:06:48;;;;;;;5.53;4.15;;;;;;;5.72;69.61;99273.81;4106696;28;20262;-89
2022/04/17 05:08:52;;;;;;;4.50;4.10;;;;;;;5.78;68.86;99270.22;4135262;28;20208;-89
2022/04/17 05:10:55;;;;;;;5.80;5.20;;;;;;;5.91;69.61;99277.56;4118244;28;20204;-89
2022/04/17 05:13:00;;;;;;;5.18;4.55;;;;;;;6.07;69.26;99272.75;4136614;28;22517;-90
2022/04/17 05:15:03;;;;;;;7.68;4.90;;;;;;;6.29;67.77;99272.88;4104972;28;20250;-90
2022/04/17 05:17:07;;;;;;;8.40;4.50;;;;;;;6.56;67.53;99268.53;4118474;28;20219;-89
2022/04/17 05:19:20;;;;;;;5.45;4.55;;;;;;;6.86;67.16;99263.13;4136406;28;20622;-90
2022/04/17 05:21:31;;;;;;;7.40;4.63;;;;;;;7.16;65.50;99268.91;4107745;28;20276;-90
2022/04/17 05:23:37;;;;;;;4.93;4.35;;;;;;;7.47;64.64;99274.66;4119373;28;20210;-90
2022/04/17 05:25:40;;;;;;;6.00;4.30;;;;;;;7.74;63.56;99274.50;4133547;28;20255;-89
2022/04/17 05:27:43;;;;;;;5.40;4.40;;;;;;;7.99;62.94;99267.44;4121862;28;20222;-90
2022/04/17 05:29:48;;;;;;;5.25;4.32;;;;;;;8.21;61.42;99270.88;4121854;28;20208;-90
2022/04/17 05:31:52;;;;;;;7.43;3.95;;;;;;;8.36;62.81;99273.75;4134738;28;20200;-90
2022/04/17 05:33:55;;;;;;;5.18;4.20;;;;;;;8.46;61.13;99275.03;4102532;28;20215;-90
2022/04/17 05:35:58;;;;;;;4.80;4.30;;;;;;;8.60;60.81;99281.38;4119352;28;20712;-91
2022/04/17 05:38:02;;;;;;;5.60;4.28;;;;;;;8.82;60.46;99279.53;4137563;28;21627;-89
2022/04/17 05:40:07;;;;;;;7.40;6.70;;;;;;;9.04;59.94;99280.34;4120739;28;20889;-90
2022/04/17 05:42:10;;;;;;;5.57;4.38;;;;;;;9.13;59.86;99280.78;4134240;28;20255;-90
2022/04/17 05:44:20;;;;;;;4.82;4.18;;;;;;;9.34;58.89;99274.63;4122919;28;20246;-90
2022/04/17 05:46:25;;;;;;;5.82;4.20;;;;;;;9.60;58.68;99290.75;4105346;28;20638;-90
2022/04/17 05:48:28;;;;;;;5.40;4.70;;;;;;;9.87;58.62;99287.72;4104916;28;20236;-89
2022/04/17 05:50:32;;;;;;;4.40;4.00;;;;;;;10.11;58.11;99291.81;4121393;28;20737;-89
2022/04/17 05:52:35;;;;;;;6.00;4.50;;;;;;;10.32;57.53;99293.41;4108310;28;20660;-89
2022/04/17 05:54:41;;;;;;;5.67;4.30;;;;;;;10.56;56.88;99292.22;4102868;28;20654;-90
2022/04/17 05:56:44;;;;;;;5.53;3.80;;;;;;;10.80;55.89;99291.84;4122011;28;20678;-90
2022/04/17 05:58:48;;;;;;;5.10;4.40;;;;;;;10.98;57.60;99296.16;4122478;28;20646;-90
2022/04/17 06:00:53;;;;;;;5.47;4.30;;;;;;;11.20;55.72;99291.50;4118509;28;20664;-90
2022/04/17 06:02:58;;;;;;;5.33;4.60;;;;;;;11.35;55.98;99279.34;4120679;28;21096;-89
2022/04/17 06:05:01;;;;;;;5.10;4.30;;;;;;;11.53;56.75;99278.44;4106122;28;20645;-90
2022/04/17 06:07:04;;;;;;;5.13;4.23;;;;;;;11.73;55.51;99280.81;4117448;28;20642;-90
2022/04/17 06:09:08;;;;;;;6.50;4.80;;;;;;;11.99;55.89;99275.00;4120800;28;21245;-89
2022/04/17 06:11:12;;;;;;;4.67;4.17;;;;;;;12.13;53.91;99275.91;4105166;28;20742;-89
2022/04/17 06:13:15;;;;;;;5.73;4.30;;;;;;;12.30;53.85;99278.44;4104673;28;20636;-90
2022/04/17 06:15:18;;;;;;;4.90;4.50;;;;;;;12.35;53.82;99264.16;4110024;28;20728;-90
2022/04/17 06:17:22;;;;;;;6.20;4.30;;;;;;;12.56;54.10;99265.56;4125054;28;20641;-90
2022/04/17 06:19:27;;;;;;;8.40;4.30;;;;;;;12.79;54.53;99273.78;4109891;28;21032;-89
2022/04/17 06:21:30;;;;;;;6.10;4.30;;;;;;;12.98;53.19;99269.16;4139598;28;20660;-90
2022/04/17 06:23:33;;;;;;;5.30;3.90;;;;;;;12.91;51.12;99274.84;4138303;28;20639;-89
2022/04/17 06:25:37;;;;;;;6.57;4.73;;;;;;;12.92;53.20;99272.16;4124480;28;20733;-90
2022/04/17 06:27:40;;;;;;;5.73;4.50;;;;;;;13.03;52.30;99269.72;4126306;28;21151;-89
2022/04/17 06:29:44;;;;;;;5.90;4.30;;;;;;;13.18;52.23;99268.81;4111176;28;20656;-90
2022/04/17 06:31:47;;;;;;;5.13;4.60;;;;;;;13.30;53.30;99273.31;4109869;28;20732;-89
2022/04/17 06:33:51;;;;;;;5.07;4.10;;;;;;;13.40;52.38;99264.81;4123363;28;21190;-89
2022/04/17 06:35:59;;;;;;;5.83;4.80;;;;;;;13.52;52.95;99271.94;4120958;28;20647;-90
2022/04/17 06:38:05;;;;;;;5.33;3.97;;;;;;;13.55;51.40;99266.50;4122118;28;20643;-90
2022/04/17 06:40:09;;;;;;;5.70;4.30;;;;;;;13.74;53.78;99270.53;4123833;28;20671;-89
2022/04/17 06:42:13;;;;;;;4.07;3.67;;;;;;;13.64;51.98;99267.72;4125669;28;20681;-89
2022/04/17 06:44:16;;;;;;;4.90;4.27;;;;;;;13.70;50.31;99263.78;4109461;28;20695;-90
2022/04/17 06:46:20;;;;;;;6.20;3.80;;;;;;;13.90;51.06;99255.50;4135532;28;20637;-90
2022/04/17 06:48:24;;;;;;;8.50;4.13;;;;;;;14.02;50.55;99257.34;4106039;28;21053;-89
2022/04/17 06:50:27;;;;;;;4.00;3.53;;;;;;;14.23;50.05;99258.66;4137623;28;20642;-90
2022/04/17 06:52:33;;;;;;;4.10;3.70;;;;;;;14.44;50.83;99260.72;4119816;28;20721;-89
2022/04/17 06:54:36;;;;;;;4.97;3.70;;;;;;;14.35;49.96;99237.69;4117748;28;20658;-90
2022/04/17 06:56:40;;;;;;;4.13;3.33;;;;;;;14.42;49.48;99240.78;4125003;28;20644;-89
2022/04/17 06:58:43;;;;;;;5.60;3.73;;;;;;;14.52;50.30;99245.28;4120965;28;20648;-90
2022/04/17 07:00:48;;;;;;;3.80;3.37;;;;;;;14.67;49.58;99244.28;4121863;28;20684;-90
2022/04/17 07:02:52;;;;;;;5.80;3.07;;;;;;;14.71;49.92;99253.66;4135690;28;20656;-90
2022/04/17 07:04:55;;;;;;;5.20;3.33;;;;;;;14.77;48.88;99259.34;4120420;28;20678;-89
2022/04/17 07:06:59;;;;;;;4.73;3.57;;;;;;;14.70;50.46;99244.94;4121497;28;20635;-90
2022/04/17 07:09:03;;;;;;;4.33;3.57;;;;;;;14.85;48.30;99254.41;4123473;28;20636;-90
2022/04/17 07:11:07;;;;;;;3.97;3.30;;;;;;;14.88;48.07;99253.38;4124394;28;20649;-89
2022/04/17 07:13:14;;;;;;;4.63;3.20;;;;;;;14.88;49.14;99253.38;4121368;28;20781;-90
2022/04/17 07:15:19;;;;;;;4.30;3.87;;;;;;;15.02;48.67;99245.41;4124070;28;21211;-89
2022/04/17 07:17:32;;;;;;;5.33;3.20;;;;;;;15.28;48.39;99247.97;4140591;28;20716;-89
2022/04/17 07:19:35;;;;;;;3.67;3.20;;;;;;;15.57;49.03;99235.34;4120570;28;20638;-89
2022/04/17 07:21:39;;;;;;;5.30;3.53;;;;;;;15.88;48.71;99240.13;4123483;28;20704;-89
2022/04/17 07:23:43;;;;;;;5.93;3.50;;;;;;;16.12;48.64;99244.47;4121905;28;20733;-90
2022/04/17 07:25:49;;;;;;;3.50;3.00;;;;;;;15.99;46.01;99247.25;4121898;28;20720;-90
2022/04/17 07:27:53;;;;;;;4.27;3.37;;;;;;;16.06;48.26;99233.53;4103054;28;20746;-90
2022/04/17 07:29:57;;;;;;;5.30;3.47;;;;;;;16.32;47.81;99235.16;4123592;28;20642;-90
2022/04/17 07:32:01;;;;;;;3.87;3.10;;;;;;;16.35;45.66;99235.75;4122059;28;20662;-89
2022/04/17 07:34:04;;;;;;;6.30;3.23;;;;;;;16.51;45.78;99236.31;4126754;28;20632;-89
2022/04/17 07:36:09;;;;;;;4.10;3.20;;;;;;;16.50;46.73;99224.09;4125268;28;20639;-88
2022/04/17 07:38:12;;;;;;;4.07;3.10;;;;;;;16.61;45.68;99221.50;4130132;28;20614;-89
2022/04/17 07:40:20;;;;;;;3.43;2.80;;;;;;;16.60;45.12;99223.31;4131165;28;20726;-88
2022/04/17 07:42:25;;;;;;;3.60;2.93;;;;;;;16.56;47.42;99219.22;4133961;28;20671;-88
2022/04/17 07:44:29;;;;;;;5.03;3.60;;;;;;;16.26;45.44;99225.91;4153406;28;20663;-90
2022/04/17 07:46:33;;;;;;;3.20;2.90;;;;;;;16.05;44.37;99242.38;4128081;28;20634;-94
2022/04/17 07:48:39;;;;;;;3.63;3.03;;;;;;;15.87;45.00;99220.00;4145414;28;20626;-93
2022/04/17 07:50:46;;;;;;;4.30;3.10;;;;;;;16.04;46.82;99240.69;4142867;28;20638;-91
2022/04/17 07:52:50;;;;;;;3.43;2.80;;;;;;;15.53;46.10;99227.78;4156726;28;20923;-88
2022/04/17 07:54:54;;;;;;;3.63;2.73;;;;;;;15.69;45.70;99231.00;4144207;28;20657;-91
2022/04/17 07:56:58;;;;;;;3.17;2.70;;;;;;;15.60;44.37;99224.59;4139522;28;20661;-88
2022/04/17 07:59:04;;;;;;;4.17;3.10;;;;;;;15.48;44.88;99226.41;4139446;28;20635;-91
2022/04/17 08:01:11;;;;;;;3.30;2.70;;;;;;;15.54;45.93;99237.34;4123904;28;20681;-91
2022/04/17 08:03:24;;;;;;;2.70;2.43;;;;;;;15.81;46.06;99223.06;4142738;28;20730;-91
2022/04/17 08:05:28;;;;;;;4.43;2.90;;;;;;;16.03;45.23;99217.97;4144133;28;20633;-91
2022/04/17 08:07:31;;;;;;;3.53;2.70;;;;;;;16.23;47.12;99215.59;4131167;28;20627;-91
2022/04/17 08:09:35;;;;;;;4.10;3.30;;;;;;;16.35;45.06;99217.31;4138038;28;20655;-88
2022/04/17 08:11:39;;;;;;;3.43;2.90;;;;;;;16.23;45.06;99210.31;4122386;28;20628;-87
2022/04/17 08:13:44;;;;;;;4.40;2.67;;;;;;;16.30;45.13;99226.53;4130040;28;20675;-88
2022/04/17 08:15:50;;;;;;;4.37;3.00;;;;;;;16.08;45.61;99214.03;4141638;28;20639;-90
2022/04/17 08:17:53;;;;;;;6.83;2.90;;;;;;;15.99;44.23;99216.50;4117338;28;20659;-90
2022/04/17 08:19:56;;;;;;;4.70;3.13;;;;;;;15.80;45.01;99217.91;4130280;28;20726;-90
2022/04/17 08:22:00;;;;;;;3.90;2.83;;;;;;;16.00;47.10;99212.06;4111239;28;20647;-92
2022/04/17 08:24:03;;;;;;;5.63;3.13;;;;;;;15.96;45.26;99206.19;4127127;28;20639;-91
2022/04/17 08:26:07;;;;;;;4.00;2.80;;;;;;;15.84;44.45;99206.25;4129210;28;20631;-90
2022/04/17 08:28:10;;;;;;;3.80;3.03;;;;;;;16.15;46.46;99203.91;4124855;28;21256;-91
2022/04/17 08:30:20;;;;;;;3.50;2.83;;;;;;;16.38;45.42;99200.47;4108665;28;21302;-91
2022/04/17 08:32:24;;;;;;;3.63;2.80;;;;;;;16.18;45.83;99199.25;4123687;28;20705;-88
2022/04/17 08:34:29;;;;;;;3.43;2.60;;;;;;;16.10;45.15;99188.47;4124787;28;20620;-94
2022/04/17 08:36:32;;;;;;;3.37;2.70;;;;;;;16.20;45.45;99188.63;4128158;28;21518;-84
2022/04/17 08:38:35;;;;;;;4.00;2.60;;;;;;;16.12;43.78;99191.81;4126024;28;20677;-86
2022/04/17 08:40:39;;;;;;;8.20;2.80;;;;;;;16.18;45.00;99185.28;4128259;28;20750;-88
2022/04/17 08:42:44;;;;;;;3.33;2.50;;;;;;;16.22;46.28;99170.94;4122417;28;21018;-88
2022/04/17 08:44:47;;;;;;;3.03;2.73;;;;;;;16.29;47.09;99169.56;4128322;28;20693;-86
2022/04/17 08:46:51;;;;;;;3.50;2.93;;;;;;;16.19;45.38;99171.13;4136738;28;20638;-86
2022/04/17 08:48:56;;;;;;;3.30;2.50;;;;;;;16.35;47.81;99159.38;4126520;28;21272;-87
2022/04/17 08:51:02;;;;;;;3.03;2.20;;;;;;;16.55;46.47;99156.09;4123515;28;20694;-89
2022/04/17 08:53:06;;;;;;;4.33;2.90;;;;;;;16.36;45.13;99147.91;4124445;28;21079;-88
2022/04/17 08:55:10;;;;;;;3.73;2.90;;;;;;;16.15;44.25;99153.91;4138214;28;20638;-87
2022/04/17 08:57:13;;;;;;;3.23;2.40;;;;;;;16.08;45.00;99155.28;4120016;28;20623;-90
2022/04/17 08:59:17;;;;;;;4.00;2.53;;;;;;;15.74;44.09;99142.94;4120469;28;21150;-90
2022/04/17 09:01:20;;;;;;;3.40;2.23;;;;;;;15.68;45.10;99132.84;4137424;28;20766;-89
2022/04/17 09:03:24;;;;;;;3.13;2.47;;;;;;;15.66;45.51;99128.63;4123138;28;21018;-89
2022/04/17 09:05:33;;;;;;;3.60;2.80;;;;;;;15.84;45.58;99132.56;4119409;28;21217;-89
2022/04/17 09:07:40;;;;;;;5.53;4.40;;;;;;;15.97;45.81;99125.47;4121077;28;20747;-89
2022/04/17 09:09:49;;;;;;;4.50;3.63;;;;;;;16.05;45.78;99116.88;4123460;28;20635;-89
2022/04/17 09:11:54;;;;;;;4.37;3.27;;;;;;;16.10;44.97;99124.41;4136081;28;21220;-92
2022/04/17 09:13:59;;;;;;;4.83;3.17;;;;;;;16.18;44.82;99124.72;4104953;28;20640;-93
2022/04/17 09:16:03;;;;;;;4.17;3.00;;;;;;;16.14;45.31;99124.09;4107324;28;21005;-91
2022/04/17 09:18:08;;;;;;;3.43;3.13;;;;;;;16.01;44.79;99119.00;4103359;28;24554;-93
2022/04/17 09:20:20;;;;;;;4.20;3.13;;;;;;;16.05;43.97;99126.56;4120146;28;20647;-94
2022/04/17 09:22:25;;;;;;;4.93;4.50;;;;;;;15.90;44.44;99118.97;4119789;28;21293;-91
2022/04/17 09:24:29;;;;;;;5.20;3.17;;;;;;;15.95;45.25;99125.59;4123021;28;20663;-93
2022/04/17 09:26:33;;;;;;;4.10;2.50;;;;;;;16.03;45.63;99103.00;4110526;28;20650;-91
2022/04/17 09:28:37;;;;;;;3.17;2.50;;;;;;;16.19;44.66;99110.59;4135656;28;20638;-92
2022/04/17 09:30:45;;;;;;;3.87;3.00;;;;;;;16.36;47.88;99105.78;4118906;28;20650;-93
2022/04/17 09:32:51;;;;;;;2.60;2.30;;;;;;;16.52;45.95;99106.28;4125036;28;21209;-91
2022/04/17 09:34:58;;;;;;;3.70;2.33;;;;;;;16.64;46.30;99103.59;4118328;28;20730;-91
2022/04/17 09:37:01;;;;;;;3.30;2.40;;;;;;;16.77;45.25;99099.03;4122664;28;20619;-91
2022/04/17 09:39:19;;;;;;;3.23;1.90;;;;;;;16.97;44.19;99100.97;4134504;28;21208;-92
2022/04/17 09:41:22;;;;;;;3.87;3.10;;;;;;;16.92;44.86;99089.94;4122216;28;20624;-93
2022/04/17 09:43:33;;;;;;;4.17;2.40;;;;;;;17.07;44.67;99094.84;4114576;28;20640;-90
2022/04/17 09:45:56;;;;;;;3.20;2.57;;;;;;;16.98;43.38;99100.84;4101270;28;20632;-90
2022/04/17 09:48:00;;;;;;;3.53;2.70;;;;;;;16.89;42.65;99091.97;4105202;28;20675;-89
2022/04/17 09:50:06;;;;;;;2.33;2.10;;;;;;;16.86;43.55;99100.13;4142880;28;20646;-93
2022/04/17 09:52:10;;;;;;;3.53;2.17;;;;;;;16.90;46.21;99091.88;4145528;28;20635;-94
2022/04/17 09:54:17;;;;;;;2.77;2.03;;;;;;;16.80;43.67;99084.78;4125007;28;20666;-93
2022/04/17 09:56:30;;;;;;;3.97;2.67;;;;;;;16.73;43.99;99091.47;4140350;28;20631;-93
2022/04/17 09:58:38;;;;;;;2.67;1.90;;;;;;;16.71;44.35;99091.59;4123636;28;21049;-94
2022/04/17 10:00:47;;;;;;;3.33;2.43;;;;;;;16.85;44.59;99077.34;4108788;28;20654;-93